sensor_id;sensor_type;location;lat;lon;timestamp;temperature;humidity
63445;DHT22;49573;47.682;9.170;2023-05-07T00:01:14;15.00;77.70
63445;DHT22;49573;47.682;9.170;2023-05-07T00:04:00;14.80;77.90
63445;DHT22;49573;47.682;9.170;2023-05-07T00:06:46;14.80;78.20
63445;DHT22;49573;47.682;9.170;2023-05-07T00:09:33;14.80;78.00
63445;DHT22;49573;47.682;9.170;2023-05-07T00:15:06;14.90;77.80
63445;DHT22;49573;47.682;9.170;2023-05-07T00:17:55;14.80;77.90
63445;DHT22;49573;47.682;9.170;2023-05-07T00:20:41;14.80;78.20
63445;DHT22;49573;47.682;9.170;2023-05-07T00:23:27;14.70;78.20
63445;DHT22;49573;47.682;9.170;2023-05-07T00:26:13;14.70;78.70
63445;DHT22;49573;47.682;9.170;2023-05-07T00:28:59;14.70;78.70
63445;DHT22;49573;47.682;9.170;2023-05-07T00:31:45;14.70;78.30
63445;DHT22;49573;47.682;9.170;2023-05-07T00:34:32;14.70;78.40
63445;DHT22;49573;47.682;9.170;2023-05-07T00:37:18;14.70;78.80
63445;DHT22;49573;47.682;9.170;2023-05-07T00:40:05;14.60;78.70
63445;DHT22;49573;47.682;9.170;2023-05-07T00:42:53;14.60;78.70
63445;DHT22;49573;47.682;9.170;2023-05-07T00:45:42;14.60;78.70
63445;DHT22;49573;47.682;9.170;2023-05-07T00:48:28;14.50;78.80
63445;DHT22;49573;47.682;9.170;2023-05-07T00:51:16;14.50;78.90
63445;DHT22;49573;47.682;9.170;2023-05-07T00:54:03;14.50;78.70
63445;DHT22;49573;47.682;9.170;2023-05-07T00:56:49;14.50;78.90
63445;DHT22;49573;47.682;9.170;2023-05-07T00:59:35;14.40;79.20
63445;DHT22;49573;47.682;9.170;2023-05-07T01:02:21;14.40;79.00
63445;DHT22;49573;47.682;9.170;2023-05-07T01:05:09;14.40;79.10
63445;DHT22;49573;47.682;9.170;2023-05-07T01:07:58;14.40;79.20
63445;DHT22;49573;47.682;9.170;2023-05-07T01:10:44;14.40;79.20
63445;DHT22;49573;47.682;9.170;2023-05-07T01:13:31;14.30;79.50
63445;DHT22;49573;47.682;9.170;2023-05-07T01:16:18;14.30;79.70
63445;DHT22;49573;47.682;9.170;2023-05-07T01:19:04;14.30;79.50
63445;DHT22;49573;47.682;9.170;2023-05-07T01:21:51;14.30;79.70
63445;DHT22;49573;47.682;9.170;2023-05-07T01:24:38;14.30;79.70
63445;DHT22;49573;47.682;9.170;2023-05-07T01:27:24;14.20;79.60
63445;DHT22;49573;47.682;9.170;2023-05-07T01:30:11;14.20;80.10
63445;DHT22;49573;47.682;9.170;2023-05-07T01:33:00;14.10;80.30
63445;DHT22;49573;47.682;9.170;2023-05-07T01:35:49;14.10;80.20
63445;DHT22;49573;47.682;9.170;2023-05-07T01:38:37;14.20;80.20
63445;DHT22;49573;47.682;9.170;2023-05-07T01:41:26;14.20;80.20
63445;DHT22;49573;47.682;9.170;2023-05-07T01:44:13;14.20;80.00
63445;DHT22;49573;47.682;9.170;2023-05-07T01:47:00;14.10;80.40
63445;DHT22;49573;47.682;9.170;2023-05-07T01:49:46;14.10;80.40
63445;DHT22;49573;47.682;9.170;2023-05-07T01:52:33;14.10;80.30
63445;DHT22;49573;47.682;9.170;2023-05-07T01:55:19;14.10;80.50
63445;DHT22;49573;47.682;9.170;2023-05-07T01:58:07;14.00;80.40
63445;DHT22;49573;47.682;9.170;2023-05-07T02:00:53;14.00;80.60
63445;DHT22;49573;47.682;9.170;2023-05-07T02:03:39;13.90;80.80
63445;DHT22;49573;47.682;9.170;2023-05-07T02:06:25;13.80;80.70
63445;DHT22;49573;47.682;9.170;2023-05-07T02:09:11;13.80;80.90
63445;DHT22;49573;47.682;9.170;2023-05-07T02:11:57;13.80;80.80
63445;DHT22;49573;47.682;9.170;2023-05-07T02:14:44;13.80;80.80
63445;DHT22;49573;47.682;9.170;2023-05-07T02:17:30;13.80;80.70
63445;DHT22;49573;47.682;9.170;2023-05-07T02:31:24;14.10;79.30
63445;DHT22;49573;47.682;9.170;2023-05-07T02:34:10;13.60;80.90
63445;DHT22;49573;47.682;9.170;2023-05-07T02:36:56;13.50;80.90
63445;DHT22;49573;47.682;9.170;2023-05-07T02:39:42;13.50;81.10
63445;DHT22;49573;47.682;9.170;2023-05-07T02:42:28;13.50;81.30
63445;DHT22;49573;47.682;9.170;2023-05-07T02:45:14;13.40;81.40
63445;DHT22;49573;47.682;9.170;2023-05-07T02:48:02;13.30;81.60
63445;DHT22;49573;47.682;9.170;2023-05-07T02:50:48;13.30;81.50
63445;DHT22;49573;47.682;9.170;2023-05-07T02:53:34;13.30;81.50
63445;DHT22;49573;47.682;9.170;2023-05-07T02:56:20;13.30;81.40
63445;DHT22;49573;47.682;9.170;2023-05-07T02:59:06;13.30;81.60
63445;DHT22;49573;47.682;9.170;2023-05-07T03:01:52;13.20;81.70
63445;DHT22;49573;47.682;9.170;2023-05-07T03:04:40;13.20;81.80
63445;DHT22;49573;47.682;9.170;2023-05-07T03:07:26;13.20;81.90
63445;DHT22;49573;47.682;9.170;2023-05-07T03:10:12;13.10;81.90
63445;DHT22;49573;47.682;9.170;2023-05-07T03:18:31;13.00;82.00
63445;DHT22;49573;47.682;9.170;2023-05-07T03:21:19;13.00;82.20
63445;DHT22;49573;47.682;9.170;2023-05-07T03:24:05;13.00;82.10
63445;DHT22;49573;47.682;9.170;2023-05-07T03:26:51;13.00;81.90
63445;DHT22;49573;47.682;9.170;2023-05-07T03:29:37;12.90;82.00
63445;DHT22;49573;47.682;9.170;2023-05-07T03:32:23;12.90;82.20
63445;DHT22;49573;47.682;9.170;2023-05-07T03:35:10;12.90;81.90
63445;DHT22;49573;47.682;9.170;2023-05-07T03:37:57;12.80;82.10
63445;DHT22;49573;47.682;9.170;2023-05-07T03:40:43;12.80;82.10
63445;DHT22;49573;47.682;9.170;2023-05-07T03:43:29;12.80;82.20
63445;DHT22;49573;47.682;9.170;2023-05-07T03:46:15;12.80;82.30
63445;DHT22;49573;47.682;9.170;2023-05-07T03:49:01;12.70;82.20
63445;DHT22;49573;47.682;9.170;2023-05-07T03:51:47;12.70;82.40
63445;DHT22;49573;47.682;9.170;2023-05-07T03:54:35;12.70;82.40
63445;DHT22;49573;47.682;9.170;2023-05-07T03:57:21;12.70;82.40
63445;DHT22;49573;47.682;9.170;2023-05-07T04:00:07;12.60;82.30
63445;DHT22;49573;47.682;9.170;2023-05-07T04:02:53;12.60;82.40
63445;DHT22;49573;47.682;9.170;2023-05-07T04:05:39;12.60;82.10
63445;DHT22;49573;47.682;9.170;2023-05-07T04:11:13;12.60;82.60
63445;DHT22;49573;47.682;9.170;2023-05-07T04:13:59;12.50;82.60
63445;DHT22;49573;47.682;9.170;2023-05-07T04:16:45;12.50;82.50
63445;DHT22;49573;47.682;9.170;2023-05-07T04:19:33;12.40;82.80
63445;DHT22;49573;47.682;9.170;2023-05-07T04:22:19;12.40;82.80
63445;DHT22;49573;47.682;9.170;2023-05-07T04:25:06;12.50;82.70
63445;DHT22;49573;47.682;9.170;2023-05-07T04:27:53;12.40;82.70
63445;DHT22;49573;47.682;9.170;2023-05-07T04:33:26;12.50;82.80
63445;DHT22;49573;47.682;9.170;2023-05-07T04:36:12;12.50;82.70
63445;DHT22;49573;47.682;9.170;2023-05-07T04:38:59;12.60;82.80
63445;DHT22;49573;47.682;9.170;2023-05-07T04:41:45;12.50;83.00
63445;DHT22;49573;47.682;9.170;2023-05-07T04:47:18;12.60;83.20
63445;DHT22;49573;47.682;9.170;2023-05-07T10:07:13;23.70;53.60
63445;DHT22;49573;47.682;9.170;2023-05-07T10:09:59;22.50;53.90
63445;DHT22;49573;47.682;9.170;2023-05-07T10:12:46;22.60;54.80
63445;DHT22;49573;47.682;9.170;2023-05-07T10:15:34;22.80;54.60
63445;DHT22;49573;47.682;9.170;2023-05-07T10:18:21;22.80;56.10
63445;DHT22;49573;47.682;9.170;2023-05-07T10:21:17;23.10;54.90
63445;DHT22;49573;47.682;9.170;2023-05-07T10:24:09;22.60;54.00
63445;DHT22;49573;47.682;9.170;2023-05-07T10:27:01;22.70;55.60
63445;DHT22;49573;47.682;9.170;2023-05-07T10:29:57;23.60;54.20
63445;DHT22;49573;47.682;9.170;2023-05-07T10:32:49;23.50;54.80
63445;DHT22;49573;47.682;9.170;2023-05-07T10:35:39;23.00;53.20
63445;DHT22;49573;47.682;9.170;2023-05-07T10:38:27;22.80;53.80
63445;DHT22;49573;47.682;9.170;2023-05-07T10:47:06;24.50;53.50
63445;DHT22;49573;47.682;9.170;2023-05-07T10:53:22;24.70;51.00
63445;DHT22;49573;47.682;9.170;2023-05-07T10:56:27;23.80;52.30
63445;DHT22;49573;47.682;9.170;2023-05-07T10:59:33;24.10;52.00
63445;DHT22;49573;47.682;9.170;2023-05-07T11:02:20;23.70;52.20
63445;DHT22;49573;47.682;9.170;2023-05-07T11:05:21;23.80;52.80
63445;DHT22;49573;47.682;9.170;2023-05-07T11:08:08;24.00;52.00
63445;DHT22;49573;47.682;9.170;2023-05-07T11:10:56;24.10;54.00
63445;DHT22;49573;47.682;9.170;2023-05-07T11:13:46;24.50;52.70
63445;DHT22;49573;47.682;9.170;2023-05-07T11:16:33;24.40;53.00
63445;DHT22;49573;47.682;9.170;2023-05-07T11:19:49;24.40;52.50
63445;DHT22;49573;47.682;9.170;2023-05-07T11:22:36;24.30;52.40
63445;DHT22;49573;47.682;9.170;2023-05-07T11:25:25;24.50;53.90
63445;DHT22;49573;47.682;9.170;2023-05-07T11:28:11;24.90;52.60
63445;DHT22;49573;47.682;9.170;2023-05-07T11:31:00;25.20;52.30
63445;DHT22;49573;47.682;9.170;2023-05-07T11:33:46;24.60;50.70
63445;DHT22;49573;47.682;9.170;2023-05-07T11:36:32;25.10;51.50
63445;DHT22;49573;47.682;9.170;2023-05-07T11:39:29;25.10;51.00
63445;DHT22;49573;47.682;9.170;2023-05-07T11:42:25;25.40;52.10
63445;DHT22;49573;47.682;9.170;2023-05-07T11:45:11;25.90;50.90
63445;DHT22;49573;47.682;9.170;2023-05-07T11:47:58;26.10;49.50
63445;DHT22;49573;47.682;9.170;2023-05-07T11:50:50;25.70;50.40
63445;DHT22;49573;47.682;9.170;2023-05-07T11:53:38;25.70;48.80
63445;DHT22;49573;47.682;9.170;2023-05-07T11:56:25;26.30;49.00
63445;DHT22;49573;47.682;9.170;2023-05-07T11:59:11;26.20;50.60
63445;DHT22;49573;47.682;9.170;2023-05-07T12:01:57;26.50;51.40
63445;DHT22;49573;47.682;9.170;2023-05-07T12:04:45;26.60;49.10
63445;DHT22;49573;47.682;9.170;2023-05-07T12:07:33;26.80;48.90
63445;DHT22;49573;47.682;9.170;2023-05-07T12:10:20;26.90;49.40
63445;DHT22;49573;47.682;9.170;2023-05-07T12:13:14;26.80;49.40
63445;DHT22;49573;47.682;9.170;2023-05-07T12:16:00;26.90;49.20
63445;DHT22;49573;47.682;9.170;2023-05-07T12:18:49;26.90;48.90
63445;DHT22;49573;47.682;9.170;2023-05-07T12:21:37;26.70;50.00
63445;DHT22;49573;47.682;9.170;2023-05-07T12:24:23;26.20;49.40
63445;DHT22;49573;47.682;9.170;2023-05-07T12:27:09;26.10;49.90
63445;DHT22;49573;47.682;9.170;2023-05-07T12:29:57;25.80;50.30
63445;DHT22;49573;47.682;9.170;2023-05-07T12:32:45;25.90;50.70
63445;DHT22;49573;47.682;9.170;2023-05-07T12:35:32;25.90;49.80
63445;DHT22;49573;47.682;9.170;2023-05-07T12:38:22;25.90;50.70
63445;DHT22;49573;47.682;9.170;2023-05-07T12:41:09;25.60;50.70
63445;DHT22;49573;47.682;9.170;2023-05-07T12:43:56;25.70;49.90
63445;DHT22;49573;47.682;9.170;2023-05-07T12:46:43;26.10;50.10
63445;DHT22;49573;47.682;9.170;2023-05-07T12:49:29;26.30;50.50
63445;DHT22;49573;47.682;9.170;2023-05-07T12:52:15;26.60;49.70
63445;DHT22;49573;47.682;9.170;2023-05-07T12:55:06;27.20;48.30
63445;DHT22;49573;47.682;9.170;2023-05-07T12:57:53;27.60;47.10
63445;DHT22;49573;47.682;9.170;2023-05-07T13:00:39;28.20;46.50
63445;DHT22;49573;47.682;9.170;2023-05-07T13:03:27;28.10;45.80
63445;DHT22;49573;47.682;9.170;2023-05-07T13:08:59;27.80;47.60
63445;DHT22;49573;47.682;9.170;2023-05-07T13:11:47;28.00;47.00
63445;DHT22;49573;47.682;9.170;2023-05-07T13:14:33;27.80;46.40
63445;DHT22;49573;47.682;9.170;2023-05-07T13:17:19;26.90;44.70
63445;DHT22;49573;47.682;9.170;2023-05-07T13:20:06;25.90;47.20
63445;DHT22;49573;47.682;9.170;2023-05-07T13:22:54;26.40;48.40
63445;DHT22;49573;47.682;9.170;2023-05-07T13:25:40;26.40;46.80
63445;DHT22;49573;47.682;9.170;2023-05-07T13:28:27;27.50;45.20
63445;DHT22;49573;47.682;9.170;2023-05-07T13:31:13;26.60;47.10
63445;DHT22;49573;47.682;9.170;2023-05-07T13:33:59;27.00;45.60
63445;DHT22;49573;47.682;9.170;2023-05-07T13:36:45;26.80;45.20
63445;DHT22;49573;47.682;9.170;2023-05-07T13:39:32;26.90;46.10
63445;DHT22;49573;47.682;9.170;2023-05-07T13:42:18;26.40;45.80
63445;DHT22;49573;47.682;9.170;2023-05-07T13:45:07;26.30;45.80
63445;DHT22;49573;47.682;9.170;2023-05-07T13:47:53;27.00;47.60
63445;DHT22;49573;47.682;9.170;2023-05-07T13:50:39;27.60;46.40
63445;DHT22;49573;47.682;9.170;2023-05-07T13:53:25;27.20;45.70
63445;DHT22;49573;47.682;9.170;2023-05-07T13:56:11;27.20;44.30
63445;DHT22;49573;47.682;9.170;2023-05-07T13:58:57;27.00;44.80
63445;DHT22;49573;47.682;9.170;2023-05-07T14:15:38;26.30;47.70
63445;DHT22;49573;47.682;9.170;2023-05-07T14:18:26;26.20;48.20
63445;DHT22;49573;47.682;9.170;2023-05-07T14:21:12;25.60;47.60
63445;DHT22;49573;47.682;9.170;2023-05-07T14:23:58;25.80;47.20
63445;DHT22;49573;47.682;9.170;2023-05-07T14:26:44;25.70;46.60
63445;DHT22;49573;47.682;9.170;2023-05-07T14:29:31;25.60;47.10
63445;DHT22;49573;47.682;9.170;2023-05-07T14:32:17;25.60;47.20
63445;DHT22;49573;47.682;9.170;2023-05-07T14:37:52;24.30;47.00
63445;DHT22;49573;47.682;9.170;2023-05-07T14:40:38;24.40;48.00
63445;DHT22;49573;47.682;9.170;2023-05-07T14:43:24;24.40;48.20
63445;DHT22;49573;47.682;9.170;2023-05-07T14:46:10;23.90;48.50
63445;DHT22;49573;47.682;9.170;2023-05-07T14:48:56;23.80;49.10
63445;DHT22;49573;47.682;9.170;2023-05-07T14:51:44;23.80;48.50
63445;DHT22;49573;47.682;9.170;2023-05-07T14:54:33;23.60;48.70
63445;DHT22;49573;47.682;9.170;2023-05-07T14:57:19;23.70;48.60
63445;DHT22;49573;47.682;9.170;2023-05-07T15:00:06;23.60;47.80
63445;DHT22;49573;47.682;9.170;2023-05-07T15:02:53;23.70;47.80
63445;DHT22;49573;47.682;9.170;2023-05-07T15:05:39;23.30;47.50
63445;DHT22;49573;47.682;9.170;2023-05-07T15:08:26;23.30;48.10
63445;DHT22;49573;47.682;9.170;2023-05-07T15:11:12;23.50;48.60
63445;DHT22;49573;47.682;9.170;2023-05-07T15:13:58;23.40;48.60
63445;DHT22;49573;47.682;9.170;2023-05-07T15:16:44;23.60;48.60
63445;DHT22;49573;47.682;9.170;2023-05-07T15:19:31;23.40;48.20
63445;DHT22;49573;47.682;9.170;2023-05-07T15:22:17;23.00;48.40
63445;DHT22;49573;47.682;9.170;2023-05-07T15:25:05;23.00;49.70
63445;DHT22;49573;47.682;9.170;2023-05-07T15:27:51;22.80;50.90
63445;DHT22;49573;47.682;9.170;2023-05-07T15:30:37;22.80;51.30
63445;DHT22;49573;47.682;9.170;2023-05-07T15:33:23;22.90;53.10
63445;DHT22;49573;47.682;9.170;2023-05-07T15:36:09;23.00;53.60
63445;DHT22;49573;47.682;9.170;2023-05-07T15:38:56;23.10;55.20
63445;DHT22;49573;47.682;9.170;2023-05-07T15:41:44;23.10;56.60
63445;DHT22;49573;47.682;9.170;2023-05-07T15:44:30;23.10;54.30
63445;DHT22;49573;47.682;9.170;2023-05-07T15:47:17;23.00;55.10
63445;DHT22;49573;47.682;9.170;2023-05-07T15:50:04;23.00;53.80
63445;DHT22;49573;47.682;9.170;2023-05-07T15:52:51;22.90;53.40
63445;DHT22;49573;47.682;9.170;2023-05-07T15:55:37;23.00;53.10
63445;DHT22;49573;47.682;9.170;2023-05-07T15:58:24;22.50;53.80
63445;DHT22;49573;47.682;9.170;2023-05-07T16:01:11;22.50;54.40
63445;DHT22;49573;47.682;9.170;2023-05-07T16:03:57;22.60;55.80
63445;DHT22;49573;47.682;9.170;2023-05-07T16:06:43;22.50;54.70
63445;DHT22;49573;47.682;9.170;2023-05-07T16:09:32;22.40;55.20
63445;DHT22;49573;47.682;9.170;2023-05-07T16:12:18;22.50;55.60
63445;DHT22;49573;47.682;9.170;2023-05-07T16:15:06;22.20;54.50
63445;DHT22;49573;47.682;9.170;2023-05-07T16:17:53;22.00;55.10
63445;DHT22;49573;47.682;9.170;2023-05-07T16:20:42;21.80;55.50
63445;DHT22;49573;47.682;9.170;2023-05-07T16:23:28;21.80;56.20
63445;DHT22;49573;47.682;9.170;2023-05-07T16:26:14;21.80;56.20
63445;DHT22;49573;47.682;9.170;2023-05-07T16:29:00;21.60;56.60
63445;DHT22;49573;47.682;9.170;2023-05-07T16:31:48;21.40;56.70
63445;DHT22;49573;47.682;9.170;2023-05-07T16:34:34;21.30;56.90
63445;DHT22;49573;47.682;9.170;2023-05-07T16:37:20;21.20;57.50
63445;DHT22;49573;47.682;9.170;2023-05-07T16:40:07;20.90;57.80
63445;DHT22;49573;47.682;9.170;2023-05-07T16:42:53;20.80;58.20
63445;DHT22;49573;47.682;9.170;2023-05-07T16:45:39;20.80;58.50
63445;DHT22;49573;47.682;9.170;2023-05-07T16:48:27;20.60;59.70
63445;DHT22;49573;47.682;9.170;2023-05-07T16:51:13;20.40;59.70
63445;DHT22;49573;47.682;9.170;2023-05-07T16:53:59;20.40;60.60
63445;DHT22;49573;47.682;9.170;2023-05-07T16:56:45;20.30;61.00
63445;DHT22;49573;47.682;9.170;2023-05-07T16:59:31;20.30;61.30
63445;DHT22;49573;47.682;9.170;2023-05-07T17:02:18;20.30;61.70
63445;DHT22;49573;47.682;9.170;2023-05-07T17:05:06;20.20;61.80
63445;DHT22;49573;47.682;9.170;2023-05-07T17:07:53;20.10;62.70
63445;DHT22;49573;47.682;9.170;2023-05-07T17:10:40;20.00;63.20
63445;DHT22;49573;47.682;9.170;2023-05-07T17:13:27;20.00;63.30
63445;DHT22;49573;47.682;9.170;2023-05-07T17:16:13;19.80;63.60
63445;DHT22;49573;47.682;9.170;2023-05-07T17:18:59;19.70;65.10
63445;DHT22;49573;47.682;9.170;2023-05-07T17:21:46;19.80;64.60
63445;DHT22;49573;47.682;9.170;2023-05-07T17:24:33;19.80;65.60
63445;DHT22;49573;47.682;9.170;2023-05-07T17:27:19;19.60;66.90
63445;DHT22;49573;47.682;9.170;2023-05-07T17:30:07;19.50;68.40
63445;DHT22;49573;47.682;9.170;2023-05-07T17:32:54;19.20;69.60
63445;DHT22;49573;47.682;9.170;2023-05-07T17:35:41;19.20;70.90
63445;DHT22;49573;47.682;9.170;2023-05-07T17:38:29;19.00;72.60
63445;DHT22;49573;47.682;9.170;2023-05-07T17:41:17;18.80;74.20
63445;DHT22;49573;47.682;9.170;2023-05-07T17:44:04;18.80;74.60
63445;DHT22;49573;47.682;9.170;2023-05-07T17:46:50;18.50;76.10
63445;DHT22;49573;47.682;9.170;2023-05-07T17:49:36;18.00;78.20
63445;DHT22;49573;47.682;9.170;2023-05-07T17:52:22;18.00;78.40
63445;DHT22;49573;47.682;9.170;2023-05-07T17:55:10;17.90;78.70
63445;DHT22;49573;47.682;9.170;2023-05-07T17:57:56;18.00;78.40
63445;DHT22;49573;47.682;9.170;2023-05-07T18:00:42;17.80;78.80
63445;DHT22;49573;47.682;9.170;2023-05-07T18:03:28;17.60;79.70
63445;DHT22;49573;47.682;9.170;2023-05-07T18:06:15;17.70;79.70
63445;DHT22;49573;47.682;9.170;2023-05-07T18:09:03;17.60;80.70
63445;DHT22;49573;47.682;9.170;2023-05-07T18:11:51;17.60;80.50
63445;DHT22;49573;47.682;9.170;2023-05-07T18:14:37;17.50;81.20
63445;DHT22;49573;47.682;9.170;2023-05-07T18:17:23;17.40;81.90
63445;DHT22;49573;47.682;9.170;2023-05-07T18:20:09;17.30;81.40
63445;DHT22;49573;47.682;9.170;2023-05-07T18:22:56;17.30;80.70
63445;DHT22;49573;47.682;9.170;2023-05-07T18:25:42;17.20;81.20
63445;DHT22;49573;47.682;9.170;2023-05-07T18:28:29;17.20;81.30
63445;DHT22;49573;47.682;9.170;2023-05-07T18:31:15;17.20;81.70
63445;DHT22;49573;47.682;9.170;2023-05-07T18:34:01;17.20;82.00
63445;DHT22;49573;47.682;9.170;2023-05-07T18:36:47;17.20;81.80
63445;DHT22;49573;47.682;9.170;2023-05-07T18:39:34;17.20;81.70
63445;DHT22;49573;47.682;9.170;2023-05-07T18:42:20;17.00;82.00
63445;DHT22;49573;47.682;9.170;2023-05-07T18:45:08;17.10;81.20
63445;DHT22;49573;47.682;9.170;2023-05-07T18:47:54;17.20;81.10
63445;DHT22;49573;47.682;9.170;2023-05-07T18:50:41;17.10;80.60
63445;DHT22;49573;47.682;9.170;2023-05-07T18:53:27;17.10;81.00
63445;DHT22;49573;47.682;9.170;2023-05-07T18:56:13;17.20;81.30
63445;DHT22;49573;47.682;9.170;2023-05-07T18:58:59;17.10;80.70
63445;DHT22;49573;47.682;9.170;2023-05-07T19:01:47;17.30;80.70
63445;DHT22;49573;47.682;9.170;2023-05-07T19:04:33;17.00;79.70
63445;DHT22;49573;47.682;9.170;2023-05-07T19:07:19;17.00;80.50
63445;DHT22;49573;47.682;9.170;2023-05-07T19:10:06;17.00;80.40
63445;DHT22;49573;47.682;9.170;2023-05-07T19:12:52;16.90;80.50
63445;DHT22;49573;47.682;9.170;2023-05-07T19:15:41;16.90;80.50
63445;DHT22;49573;47.682;9.170;2023-05-07T19:18:28;16.80;80.80
63445;DHT22;49573;47.682;9.170;2023-05-07T19:21:16;16.80;80.60
63445;DHT22;49573;47.682;9.170;2023-05-07T19:24:02;16.80;80.90
63445;DHT22;49573;47.682;9.170;2023-05-07T19:26:48;16.80;80.20
63445;DHT22;49573;47.682;9.170;2023-05-07T19:29:34;16.70;80.90
63445;DHT22;49573;47.682;9.170;2023-05-07T19:32:20;16.80;80.90
63445;DHT22;49573;47.682;9.170;2023-05-07T19:35:08;16.90;81.50
63445;DHT22;49573;47.682;9.170;2023-05-07T19:37:54;16.80;82.40
63445;DHT22;49573;47.682;9.170;2023-05-07T19:40:40;16.90;81.60
63445;DHT22;49573;47.682;9.170;2023-05-07T19:43:26;16.90;82.20
63445;DHT22;49573;47.682;9.170;2023-05-07T19:48:59;16.90;82.50
63445;DHT22;49573;47.682;9.170;2023-05-07T19:51:46;16.90;82.40
63445;DHT22;49573;47.682;9.170;2023-05-07T19:54:32;16.90;82.20
63445;DHT22;49573;47.682;9.170;2023-05-07T20:00:06;17.20;81.30
63445;DHT22;49573;47.682;9.170;2023-05-07T20:02:53;17.00;81.10
63445;DHT22;49573;47.682;9.170;2023-05-07T20:05:39;16.80;81.40
63445;DHT22;49573;47.682;9.170;2023-05-07T20:08:26;16.70;80.60
63445;DHT22;49573;47.682;9.170;2023-05-07T20:11:13;16.70;81.50
63445;DHT22;49573;47.682;9.170;2023-05-07T20:13:59;16.80;81.50
63445;DHT22;49573;47.682;9.170;2023-05-07T20:16:45;16.70;82.00
63445;DHT22;49573;47.682;9.170;2023-05-07T20:19:31;16.70;82.10
63445;DHT22;49573;47.682;9.170;2023-05-07T20:22:17;16.60;81.70
63445;DHT22;49573;47.682;9.170;2023-05-07T20:25:06;16.40;82.50
63445;DHT22;49573;47.682;9.170;2023-05-07T20:27:52;16.30;82.30
63445;DHT22;49573;47.682;9.170;2023-05-07T20:30:38;16.30;82.10
63445;DHT22;49573;47.682;9.170;2023-05-07T20:33:24;16.30;83.20
63445;DHT22;49573;47.682;9.170;2023-05-07T20:38:58;16.20;83.70
63445;DHT22;49573;47.682;9.170;2023-05-07T20:41:45;16.10;84.10
63445;DHT22;49573;47.682;9.170;2023-05-07T20:44:31;16.10;83.80
63445;DHT22;49573;47.682;9.170;2023-05-07T20:47:18;16.10;84.00
63445;DHT22;49573;47.682;9.170;2023-05-07T20:50:05;16.10;83.70
63445;DHT22;49573;47.682;9.170;2023-05-07T20:52:51;15.90;83.60
63445;DHT22;49573;47.682;9.170;2023-05-07T20:55:37;15.90;84.20
63445;DHT22;49573;47.682;9.170;2023-05-07T20:58:26;15.90;84.00
63445;DHT22;49573;47.682;9.170;2023-05-07T21:01:12;15.70;84.30
63445;DHT22;49573;47.682;9.170;2023-05-07T21:03:58;15.80;84.40
63445;DHT22;49573;47.682;9.170;2023-05-07T21:06:44;15.80;84.60
63445;DHT22;49573;47.682;9.170;2023-05-07T21:09:30;15.80;84.50
63445;DHT22;49573;47.682;9.170;2023-05-07T21:12:16;15.80;83.90
63445;DHT22;49573;47.682;9.170;2023-05-07T21:15:05;15.80;83.60
63445;DHT22;49573;47.682;9.170;2023-05-07T21:17:51;15.70;83.30
63445;DHT22;49573;47.682;9.170;2023-05-07T21:20:37;15.70;83.70
63445;DHT22;49573;47.682;9.170;2023-05-07T21:23:23;15.60;84.40
63445;DHT22;49573;47.682;9.170;2023-05-07T21:26:15;15.30;85.20
63445;DHT22;49573;47.682;9.170;2023-05-07T21:29:01;15.30;85.50
63445;DHT22;49573;47.682;9.170;2023-05-07T21:31:49;15.30;85.60
63445;DHT22;49573;47.682;9.170;2023-05-07T21:34:35;15.30;85.40
63445;DHT22;49573;47.682;9.170;2023-05-07T21:37:21;15.30;85.00
63445;DHT22;49573;47.682;9.170;2023-05-07T21:40:09;15.30;85.00
63445;DHT22;49573;47.682;9.170;2023-05-07T21:42:56;15.20;85.00
63445;DHT22;49573;47.682;9.170;2023-05-07T21:45:43;15.20;85.90
63445;DHT22;49573;47.682;9.170;2023-05-07T21:48:30;15.30;85.60
63445;DHT22;49573;47.682;9.170;2023-05-07T21:51:16;15.10;85.90
63445;DHT22;49573;47.682;9.170;2023-05-07T21:54:02;15.00;85.60
63445;DHT22;49573;47.682;9.170;2023-05-07T21:56:48;15.10;85.60
63445;DHT22;49573;47.682;9.170;2023-05-07T21:59:35;15.10;85.70
63445;DHT22;49573;47.682;9.170;2023-05-07T22:02:22;15.10;85.40
63445;DHT22;49573;47.682;9.170;2023-05-07T22:05:09;15.00;85.70
63445;DHT22;49573;47.682;9.170;2023-05-07T22:07:55;15.00;85.40
63445;DHT22;49573;47.682;9.170;2023-05-07T22:10:41;14.90;85.30
63445;DHT22;49573;47.682;9.170;2023-05-07T22:13:28;15.00;85.70
63445;DHT22;49573;47.682;9.170;2023-05-07T22:16:14;14.80;84.80
63445;DHT22;49573;47.682;9.170;2023-05-07T22:19:00;14.80;85.70
63445;DHT22;49573;47.682;9.170;2023-05-07T22:21:47;14.80;85.80
63445;DHT22;49573;47.682;9.170;2023-05-07T22:24:34;14.90;85.10
63445;DHT22;49573;47.682;9.170;2023-05-07T22:27:20;14.80;85.00
63445;DHT22;49573;47.682;9.170;2023-05-07T22:30:07;14.80;84.60
63445;DHT22;49573;47.682;9.170;2023-05-07T22:32:53;14.80;85.20
63445;DHT22;49573;47.682;9.170;2023-05-07T22:35:39;14.80;84.80
63445;DHT22;49573;47.682;9.170;2023-05-07T22:38:26;14.80;84.90
63445;DHT22;49573;47.682;9.170;2023-05-07T22:41:12;14.80;85.00
63445;DHT22;49573;47.682;9.170;2023-05-07T22:43:58;14.90;84.40
63445;DHT22;49573;47.682;9.170;2023-05-07T22:46:45;14.80;84.60
63445;DHT22;49573;47.682;9.170;2023-05-07T22:49:33;14.80;84.80
63445;DHT22;49573;47.682;9.170;2023-05-07T22:52:19;14.80;84.40
63445;DHT22;49573;47.682;9.170;2023-05-07T22:55:07;14.60;85.10
63445;DHT22;49573;47.682;9.170;2023-05-07T22:57:53;14.60;84.80
63445;DHT22;49573;47.682;9.170;2023-05-07T23:00:39;14.50;84.40
63445;DHT22;49573;47.682;9.170;2023-05-07T23:03:25;14.40;84.60
63445;DHT22;49573;47.682;9.170;2023-05-07T23:06:11;14.40;84.80
63445;DHT22;49573;47.682;9.170;2023-05-07T23:08:58;14.40;84.50
63445;DHT22;49573;47.682;9.170;2023-05-07T23:11:45;14.40;84.60
63445;DHT22;49573;47.682;9.170;2023-05-07T23:14:31;14.40;84.30
63445;DHT22;49573;47.682;9.170;2023-05-07T23:17:17;14.40;84.00
63445;DHT22;49573;47.682;9.170;2023-05-07T23:20:04;14.30;84.10
63445;DHT22;49573;47.682;9.170;2023-05-07T23:22:50;14.40;83.90
63445;DHT22;49573;47.682;9.170;2023-05-07T23:25:36;14.30;84.10
63445;DHT22;49573;47.682;9.170;2023-05-07T23:28:23;14.30;84.10
63445;DHT22;49573;47.682;9.170;2023-05-07T23:31:10;14.30;84.20
63445;DHT22;49573;47.682;9.170;2023-05-07T23:33:57;14.30;84.20
63445;DHT22;49573;47.682;9.170;2023-05-07T23:36:43;14.30;84.40
63445;DHT22;49573;47.682;9.170;2023-05-07T23:39:29;14.30;84.50
63445;DHT22;49573;47.682;9.170;2023-05-07T23:42:15;14.30;84.40
63445;DHT22;49573;47.682;9.170;2023-05-07T23:45:03;14.30;84.70
63445;DHT22;49573;47.682;9.170;2023-05-07T23:47:49;14.40;84.90
63445;DHT22;49573;47.682;9.170;2023-05-07T23:50:36;14.30;84.90
63445;DHT22;49573;47.682;9.170;2023-05-07T23:53:22;14.40;84.40
63445;DHT22;49573;47.682;9.170;2023-05-07T23:56:08;14.40;84.90